Airfield :







YOU CAN JOIN US ON...

 
LOGIN :

Register | Disclaimer

   EN    FR    IT 

 









Legend :    VFR   Marginal VFR   IFR   Intensive IFR   Very Intensive IFR
Visi :
Ceiling :
>= 8 km
>= 3000ft
5 to 8 km
1000 to 3000 ft
1500m to 5 km
500 to 1000 ft
800 to 1500m
200 to 500 ft
< 800m
< 200 ft
Symbols :   Thunderstorms  Fog  Heavy snow  Heavy precipitations  Wind > 20 kt






- Airport Elevation : 92 ft
- IATA code : YZX


CYZX - CFB Greenwood

CURRENT METAR :
  • 250000Z 30013G20KT 15SM BKN040 M01/M10 A3027 RMK SC6 SLP252

EXPIRED METARs :
  • 242300Z 28018G26KT 15SM SCT042 M01/M10 A3023 RMK SC4 SLP238
  • 242200Z 30012G29KT 15SM BKN042 M01/M09 A3019 RMK SC6 PRESRR SLP224
  • 242100Z 29018G27KT 15SM BKN038 M00/M08 A3013 RMK SC6 PRESRR SLP203

TAF TAF CYZX
Valid from the 25 at 00:00 until the 26 at 00:00 UTC


242310Z 2500/2524 30018G28KT P6SM BKN040
BECMG 2500/2502 34008G18KT SCT030
FM250200 34008G18KT P6SM SCT030
BECMG 2504/2506 VRB03KT
FM250700 VRB03KT P6SM FEW030 SCT240
FM251200 VRB03KT P6SM BKN160
FM251500 18008G18KT P6SM BKN120
FM251800 19008G18KT P6SM FEW020 BKN080 OVC120 RMK NXT FCST BY 250600Z
CZQM FIR / North America



MET'MAP, your aeronautical weather chart ! - Copyright ORBIFLY December 2007 - Disclaimer

ORBIFLY MET'MAP TEAM :

Programming & Development : Alexandra Zaïnal
Concept & original design : Baudouin d'Aumeries
Assistance for programming : Marc-Olivier Méhu
Technical & hardware support : Manuel Goepfert

Contact : metmap@orbifly.com




SOURCES & CREDITS :

   NOAA